Time;durP1;ratioP1;P1;durP2;ratioP2;P2;SDS_P1;SDS_P2;PMS_P1;PMS_P2;Temp;Humidity;BMP_temperature;BMP_pressure;BME280_temperature;BME280_humidity;BME280_pressure;Samples;Min_cycle;Max_cycle;Signal;HPM_P1;HPM_P2
2023/10/06 00:02:30;;;;;;;0.47;0.20;;;22.00;99.90;;;;;;5076238;28;20204;-74
2023/10/06 00:05:01;;;;;;;0.63;0.20;;;22.10;99.90;;;;;;5075928;28;20300;-75
2023/10/06 00:07:32;;;;;;;0.80;0.20;;;22.20;99.90;;;;;;5073345;28;20197;-72
2023/10/06 00:10:14;;;;;;;1.00;0.10;;;22.40;99.90;;;;;;5074966;28;20276;-75
2023/10/06 00:12:58;;;;;;;1.75;0.20;;;22.50;99.90;;;;;;5067039;28;20215;-74
2023/10/06 00:15:38;;;;;;;0.73;0.30;;;22.70;99.90;;;;;;5075567;28;20205;-73
2023/10/06 00:18:16;;;;;;;0.98;0.30;;;22.70;99.90;;;;;;5073340;28;20197;-75
2023/10/06 00:20:49;;;;;;;1.75;0.30;;;22.60;99.90;;;;;;5068581;28;20251;-75
2023/10/06 00:23:23;;;;;;;1.17;0.40;;;22.60;99.90;;;;;;5073493;28;20200;-74
2023/10/06 00:25:57;;;;;;;1.48;0.30;;;22.60;99.90;;;;;;5075605;28;20209;-76
2023/10/06 00:28:32;;;;;;;1.58;0.52;;;22.60;99.90;;;;;;5072180;28;20200;-74
2023/10/06 00:31:08;;;;;;;1.00;0.40;;;22.50;99.90;;;;;;5069585;28;20274;-75
2023/10/06 00:33:41;;;;;;;0.82;0.30;;;22.20;99.90;;;;;;5069108;28;20228;-75
2023/10/06 00:36:17;;;;;;;2.45;0.50;;;21.70;99.90;;;;;;5073514;28;20224;-75
2023/10/06 00:38:50;;;;;;;1.48;0.50;;;21.40;99.90;;;;;;5074956;28;20235;-76
2023/10/06 00:41:23;;;;;;;0.30;0.30;;;21.30;99.90;;;;;;5072832;28;20712;-76
2023/10/06 00:43:55;;;;;;;1.73;0.45;;;21.30;99.90;;;;;;5073858;28;20276;-74
2023/10/06 00:46:25;;;;;;;0.38;0.20;;;21.30;99.90;;;;;;5070532;28;20307;-74
2023/10/06 00:48:56;;;;;;;0.80;0.38;;;21.20;99.90;;;;;;5070354;28;20211;-72
2023/10/06 00:51:29;;;;;;;0.77;0.30;;;21.40;99.90;;;;;;5073169;28;20230;-75
2023/10/06 00:54:01;;;;;;;1.33;0.35;;;21.80;99.90;;;;;;5073962;28;20197;-75
2023/10/06 00:56:35;;;;;;;0.65;0.40;;;22.40;99.90;;;;;;5069462;28;20236;-76
2023/10/06 00:59:07;;;;;;;1.40;0.30;;;22.70;99.90;;;;;;5073831;28;20219;-74
2023/10/06 01:01:38;;;;;;;0.85;0.40;;;22.70;99.90;;;;;;5073450;28;20236;-72
2023/10/06 01:04:11;;;;;;;0.88;0.30;;;22.30;99.90;;;;;;5072272;28;20406;-71
2023/10/06 01:06:42;;;;;;;1.42;0.50;;;22.10;99.90;;;;;;5069003;28;20231;-75
2023/10/06 01:09:17;;;;;;;1.05;0.20;;;22.00;99.90;;;;;;5071965;28;20197;-74
2023/10/06 01:11:50;;;;;;;0.95;0.43;;;21.80;99.90;;;;;;5090055;28;20184;-73
2023/10/06 01:14:26;;;;;;;1.35;0.20;;;21.60;99.90;;;;;;5078918;28;20196;-73
2023/10/06 01:17:08;;;;;;;0.82;0.40;;;21.70;99.90;;;;;;5080499;28;20192;-73
2023/10/06 01:19:47;;;;;;;3.60;0.63;;;22.00;99.90;;;;;;5072584;28;20211;-72
2023/10/06 01:22:24;;;;;;;1.63;0.50;;;22.30;99.90;;;;;;5077658;28;20204;-74
2023/10/06 01:24:55;;;;;;;0.88;0.40;;;22.50;99.90;;;;;;5086092;28;20539;-73
2023/10/06 01:27:27;;;;;;;5.55;0.47;;;22.70;99.90;;;;;;5077362;28;20559;-72
2023/10/06 01:30:17;;;;;;;1.17;0.28;;;22.70;99.90;;;;;;5083651;28;20204;-72
2023/10/06 01:32:51;;;;;;;0.88;0.30;;;22.80;99.90;;;;;;5086341;28;20259;-72
2023/10/06 01:35:23;;;;;;;0.30;0.28;;;22.40;99.90;;;;;;5089875;28;20269;-72
2023/10/06 01:37:59;;;;;;;2.40;0.40;;;22.10;99.90;;;;;;5081012;28;20275;-71
2023/10/06 01:40:43;;;;;;;2.03;0.40;;;22.00;99.90;;;;;;5081006;28;20189;-72
2023/10/06 01:43:14;;;;;;;0.70;0.30;;;21.80;99.90;;;;;;5074554;28;20640;-72
2023/10/06 01:45:48;;;;;;;3.00;0.40;;;21.50;99.90;;;;;;5081558;28;20215;-71
2023/10/06 01:48:25;;;;;;;1.85;0.20;;;21.20;99.90;;;;;;5079758;28;20260;-72
2023/10/06 01:50:59;;;;;;;0.75;0.30;;;20.90;99.90;;;;;;5073732;28;20197;-72
2023/10/06 01:53:35;;;;;;;1.65;0.30;;;20.80;99.90;;;;;;5074337;28;20199;-73
2023/10/06 01:56:07;;;;;;;3.05;0.50;;;20.70;99.90;;;;;;5073450;28;20207;-74
2023/10/06 01:58:39;;;;;;;3.67;0.50;;;20.50;99.90;;;;;;5073691;28;20606;-74
2023/10/06 02:01:09;;;;;;;4.07;0.50;;;20.40;99.90;;;;;;5070864;28;20197;-75
2023/10/06 02:03:40;;;;;;;1.65;0.60;;;20.30;99.90;;;;;;5071685;28;20189;-77
2023/10/06 02:06:16;;;;;;;2.47;0.50;;;20.40;99.90;;;;;;5073103;28;20593;-73
2023/10/06 02:08:52;;;;;;;5.45;0.57;;;20.40;99.90;;;;;;5073671;28;20268;-71
2023/10/06 02:11:29;;;;;;;1.17;0.20;;;20.40;99.90;;;;;;5073924;28;20204;-71
2023/10/06 02:14:00;;;;;;;0.60;0.20;;;20.40;99.90;;;;;;5073934;28;20188;-75
2023/10/06 02:16:31;;;;;;;1.85;0.38;;;20.40;99.90;;;;;;5072613;28;20222;-72
2023/10/06 02:19:08;;;;;;;3.20;0.47;;;20.30;99.90;;;;;;5072391;28;20185;-72
2023/10/06 02:21:44;;;;;;;4.85;0.60;;;20.30;99.90;;;;;;5069676;28;20201;-71
2023/10/06 02:24:18;;;;;;;2.47;0.52;;;20.20;99.90;;;;;;5072783;28;20243;-71
2023/10/06 02:26:57;;;;;;;0.85;0.32;;;20.20;99.90;;;;;;5072483;28;20684;-73
2023/10/06 02:29:28;;;;;;;2.10;0.40;;;20.10;99.90;;;;;;5072054;28;20230;-75
2023/10/06 02:32:06;;;;;;;1.63;0.40;;;20.00;99.90;;;;;;5070213;28;20205;-75
2023/10/06 02:34:38;;;;;;;1.73;0.40;;;19.90;99.90;;;;;;5068641;28;20275;-75
2023/10/06 02:37:10;;;;;;;1.70;0.50;;;19.80;99.90;;;;;;5067456;28;20194;-74
2023/10/06 02:39:43;;;;;;;3.47;0.50;;;19.70;99.90;;;;;;5064703;28;20206;-76
2023/10/06 02:42:19;;;;;;;2.10;0.40;;;19.60;99.90;;;;;;5072353;28;20730;-76
2023/10/06 02:44:51;;;;;;;2.10;0.30;;;19.40;99.90;;;;;;5073407;28;20225;-77
2023/10/06 02:47:27;;;;;;;3.15;1.10;;;19.30;99.90;;;;;;5067365;28;20299;-73
2023/10/06 02:49:59;;;;;;;3.22;0.60;;;19.20;99.90;;;;;;5065005;28;20189;-75
2023/10/06 02:52:37;;;;;;;1.17;0.40;;;19.10;99.90;;;;;;5068125;28;20204;-74
2023/10/06 02:55:11;;;;;;;2.08;0.40;;;19.00;99.90;;;;;;5068120;28;20192;-74
2023/10/06 02:57:42;;;;;;;2.42;0.52;;;18.90;99.90;;;;;;5061756;28;20197;-74
2023/10/06 03:00:30;;;;;;;1.38;0.60;;;19.00;99.90;;;;;;5063882;28;20748;-74
2023/10/06 03:03:12;;;;;;;1.88;0.60;;;19.00;99.90;;;;;;5071266;28;20275;-75
2023/10/06 03:05:49;;;;;;;3.20;0.55;;;19.10;99.90;;;;;;5069722;28;20209;-75
2023/10/06 03:08:25;;;;;;;2.03;0.40;;;19.30;99.90;;;;;;5070961;28;20188;-75
2023/10/06 03:10:59;;;;;;;1.60;0.50;;;19.50;99.90;;;;;;5071657;28;20192;-75
2023/10/06 03:13:35;;;;;;;1.65;0.50;;;19.60;99.90;;;;;;5072729;28;20193;-74
2023/10/06 03:16:10;;;;;;;1.45;0.30;;;19.80;99.90;;;;;;5071654;28;20594;-75
2023/10/06 03:18:41;;;;;;;3.67;0.68;;;20.00;99.90;;;;;;5069185;28;20249;-74
2023/10/06 03:21:14;;;;;;;1.83;0.45;;;20.00;99.90;;;;;;5072602;28;20196;-76
2023/10/06 03:23:47;;;;;;;3.95;0.60;;;20.10;99.90;;;;;;5071109;28;20201;-75
2023/10/06 03:26:25;;;;;;;5.45;0.68;;;20.10;99.90;;;;;;5073610;28;20223;-78
2023/10/06 03:29:02;;;;;;;2.20;0.77;;;20.00;99.90;;;;;;5067004;28;20201;-78
2023/10/06 03:31:44;;;;;;;7.78;1.35;;;19.90;99.90;;;;;;5070386;28;20197;-77
2023/10/06 03:34:17;;;;;;;6.70;1.20;;;19.80;99.90;;;;;;5091155;28;20273;-78
2023/10/06 03:36:51;;;;;;;6.68;1.35;;;19.70;99.90;;;;;;5082326;28;20249;-76
2023/10/06 03:39:29;;;;;;;11.68;1.70;;;19.60;99.90;;;;;;5076804;28;20224;-77
2023/10/06 03:42:07;;;;;;;5.80;1.30;;;19.40;99.90;;;;;;5091297;28;20191;-75
2023/10/06 03:44:38;;;;;;;5.45;1.35;;;19.40;99.90;;;;;;5073522;28;20199;-73
2023/10/06 03:47:10;;;;;;;4.10;1.27;;;19.30;99.90;;;;;;5080734;28;20215;-77
2023/10/06 03:49:42;;;;;;;8.82;1.60;;;19.20;99.90;;;;;;5083792;28;20668;-76
2023/10/06 03:52:13;;;;;;;7.20;1.50;;;19.00;99.90;;;;;;5090801;28;20185;-75
2023/10/06 03:54:46;;;;;;;8.32;1.60;;;18.90;99.90;;;;;;5075362;28;20208;-77
2023/10/06 03:57:19;;;;;;;5.35;1.50;;;18.80;99.90;;;;;;5073415;28;20220;-75
2023/10/06 03:59:50;;;;;;;7.50;1.60;;;18.70;99.90;;;;;;5074707;28;20653;-76
2023/10/06 04:02:21;;;;;;;9.68;1.70;;;18.70;99.90;;;;;;5076624;28;20201;-75
2023/10/06 04:04:51;;;;;;;7.57;1.63;;;18.60;99.90;;;;;;5088514;28;20189;-75
2023/10/06 04:07:23;;;;;;;6.95;1.60;;;18.60;99.90;;;;;;5074713;28;20305;-76
2023/10/06 04:09:55;;;;;;;7.57;1.67;;;18.50;99.90;;;;;;5078435;28;20718;-78
2023/10/06 04:12:28;;;;;;;7.07;1.90;;;18.30;99.90;;;;;;5073334;28;20610;-74
2023/10/06 04:14:58;;;;;;;6.10;1.45;;;18.10;99.90;;;;;;5081854;28;20199;-74
2023/10/06 04:17:30;;;;;;;8.82;1.60;;;18.20;99.90;;;;;;5090574;28;20274;-73
2023/10/06 04:20:05;;;;;;;6.47;1.45;;;18.20;99.90;;;;;;5081695;28;20204;-73
2023/10/06 04:22:38;;;;;;;5.63;1.25;;;18.10;99.90;;;;;;5077219;28;20257;-73
2023/10/06 04:25:10;;;;;;;7.13;1.50;;;18.10;99.90;;;;;;5085788;28;20184;-73
2023/10/06 04:27:42;;;;;;;7.03;1.30;;;18.10;99.90;;;;;;5092686;28;20208;-71
2023/10/06 04:30:13;;;;;;;5.13;1.40;;;18.00;99.90;;;;;;5075336;28;20197;-74
2023/10/06 04:32:44;;;;;;;7.22;1.40;;;17.90;99.90;;;;;;5088922;28;20224;-73
2023/10/06 04:35:24;;;;;;;5.43;1.60;;;17.90;99.90;;;;;;5081548;28;20231;-74
2023/10/06 04:37:55;;;;;;;10.15;2.00;;;17.90;99.90;;;;;;5094041;28;20196;-72
2023/10/06 04:40:26;;;;;;;6.45;1.52;;;17.90;99.90;;;;;;5080115;28;20197;-71
2023/10/06 04:42:59;;;;;;;6.45;1.50;;;17.80;99.90;;;;;;5063138;28;20204;-72
2023/10/06 04:45:31;;;;;;;4.82;1.67;;;17.80;99.90;;;;;;5080471;28;20657;-77
2023/10/06 04:48:03;;;;;;;7.70;1.65;;;17.70;99.90;;;;;;5075111;28;20299;-75
2023/10/06 04:50:34;;;;;;;8.90;1.70;;;17.60;99.90;;;;;;5067588;28;20196;-74
2023/10/06 04:53:05;;;;;;;5.90;1.80;;;17.50;99.90;;;;;;5075179;28;20195;-72
2023/10/06 04:55:37;;;;;;;7.90;1.77;;;17.50;99.90;;;;;;5075593;28;20719;-76
2023/10/06 04:58:13;;;;;;;10.20;1.75;;;17.50;99.90;;;;;;5074396;28;20193;-75
2023/10/06 05:00:46;;;;;;;6.95;2.00;;;17.40;99.90;;;;;;5075431;28;20553;-77
2023/10/06 05:03:17;;;;;;;10.52;2.10;;;17.40;99.90;;;;;;5074865;28;20221;-75
2023/10/06 05:05:50;;;;;;;8.23;1.80;;;17.40;99.90;;;;;;5074341;28;20853;-72
2023/10/06 05:08:20;;;;;;;6.53;1.75;;;17.30;99.90;;;;;;5077774;28;20209;-73
2023/10/06 05:10:51;;;;;;;10.40;1.90;;;17.30;99.90;;;;;;5075469;28;20196;-74
2023/10/06 05:13:26;;;;;;;6.03;1.75;;;17.30;99.90;;;;;;5079718;28;20192;-73
2023/10/06 05:15:57;;;;;;;9.30;1.95;;;17.20;99.90;;;;;;5085231;28;20184;-74
2023/10/06 05:18:29;;;;;;;5.15;1.70;;;17.10;99.90;;;;;;5091005;28;20258;-74
2023/10/06 05:21:00;;;;;;;5.07;1.60;;;17.00;99.90;;;;;;5087013;28;20216;-74
2023/10/06 05:23:31;;;;;;;8.85;1.90;;;17.30;99.90;;;;;;5080226;28;20605;-74
2023/10/06 05:26:04;;;;;;;6.40;2.00;;;17.00;99.90;;;;;;5078497;28;20284;-73
2023/10/06 05:28:37;;;;;;;6.22;1.60;;;17.00;99.90;;;;;;5076857;28;20236;-73
2023/10/06 05:31:09;;;;;;;5.95;2.08;;;17.00;99.90;;;;;;5070179;28;20201;-75
2023/10/06 05:33:40;;;;;;;6.55;1.85;;;17.00;99.90;;;;;;5071164;28;20688;-74
2023/10/06 05:36:15;;;;;;;8.27;2.17;;;17.00;99.90;;;;;;5072428;28;20224;-76
2023/10/06 05:38:46;;;;;;;4.68;1.83;;;17.00;99.90;;;;;;5074464;28;20555;-72
2023/10/06 05:41:16;;;;;;;5.97;1.40;;;17.10;99.90;;;;;;5072162;28;20197;-71
2023/10/06 05:43:49;;;;;;;5.40;1.35;;;17.00;99.90;;;;;;5074300;28;20193;-72
2023/10/06 05:46:20;;;;;;;7.20;1.67;;;17.10;99.90;;;;;;5074490;28;20204;-71
2023/10/06 05:48:51;;;;;;;6.85;1.50;;;17.00;99.90;;;;;;5074324;28;20212;-71
2023/10/06 05:51:23;;;;;;;6.13;1.17;;;17.00;99.90;;;;;;5074171;28;20209;-72
2023/10/06 05:53:53;;;;;;;7.47;1.35;;;17.00;99.90;;;;;;5073798;28;20197;-71
2023/10/06 05:56:26;;;;;;;8.02;1.15;;;17.00;99.90;;;;;;5066738;28;20189;-71
2023/10/06 05:58:59;;;;;;;7.22;1.35;;;17.00;99.90;;;;;;5072116;28;20204;-72
2023/10/06 06:01:33;;;;;;;8.40;1.50;;;17.00;99.90;;;;;;5069230;28;20193;-72
2023/10/06 06:04:09;;;;;;;8.10;1.33;;;16.90;99.90;;;;;;5071441;28;20219;-71
2023/10/06 06:06:40;;;;;;;9.80;1.60;;;16.90;99.90;;;;;;5072005;28;20217;-71
2023/10/06 06:09:15;;;;;;;7.63;1.50;;;16.80;99.90;;;;;;5071617;28;20193;-72
2023/10/06 06:11:46;;;;;;;7.40;1.35;;;16.70;99.90;;;;;;5069630;28;20254;-72
2023/10/06 06:14:21;;;;;;;9.52;1.33;;;16.60;99.90;;;;;;5071538;28;20204;-72
2023/10/06 06:16:52;;;;;;;5.68;1.40;;;16.50;99.90;;;;;;5073648;28;20282;-72
2023/10/06 06:19:23;;;;;;;6.13;1.35;;;16.60;99.90;;;;;;5070397;28;20197;-72
2023/10/06 06:21:54;;;;;;;6.68;1.23;;;16.60;99.90;;;;;;5068859;28;20199;-71
2023/10/06 06:24:24;;;;;;;7.53;1.10;;;16.60;99.90;;;;;;5069314;28;20189;-71
2023/10/06 06:26:55;;;;;;;6.72;1.30;;;16.60;99.90;;;;;;5070418;28;20220;-72
2023/10/06 06:29:29;;;;;;;6.80;1.33;;;16.60;99.90;;;;;;5067742;28;20193;-72
2023/10/06 06:32:11;;;;;;;9.20;1.45;;;16.70;99.90;;;;;;5072178;28;20220;-73
2023/10/06 06:34:43;;;;;;;6.60;1.50;;;16.80;99.90;;;;;;5068513;28;20236;-75
2023/10/06 06:37:14;;;;;;;5.32;1.38;;;16.80;99.90;;;;;;5070528;28;20197;-76
2023/10/06 06:39:46;;;;;;;5.45;1.05;;;16.80;99.90;;;;;;5076359;28;20563;-75
2023/10/06 06:42:17;;;;;;;8.98;1.45;;;16.80;99.90;;;;;;5077665;28;20204;-75
2023/10/06 06:44:51;;;;;;;7.93;1.42;;;16.80;99.90;;;;;;5069451;28;20198;-77
2023/10/06 06:47:25;;;;;;;11.20;1.60;;;16.80;99.90;;;;;;5073190;28;20208;-76
2023/10/06 06:49:58;;;;;;;9.30;1.58;;;16.80;99.90;;;;;;5071521;28;20222;-75
2023/10/06 06:52:30;;;;;;;8.63;1.48;;;16.80;99.90;;;;;;5064100;28;20201;-75
2023/10/06 06:55:01;;;;;;;7.63;1.40;;;16.80;99.90;;;;;;5069167;28;20595;-73
2023/10/06 06:57:32;;;;;;;6.43;1.73;;;16.90;99.90;;;;;;5071967;28;20228;-74
2023/10/06 07:00:09;;;;;;;8.45;1.60;;;16.90;99.90;;;;;;5072339;28;20198;-74
2023/10/06 07:02:40;;;;;;;15.43;2.08;;;16.90;99.90;;;;;;5066422;28;20622;-72
2023/10/06 07:05:11;;;;;;;12.77;1.75;;;17.00;99.90;;;;;;5070363;28;20193;-76
2023/10/06 07:07:43;;;;;;;6.68;1.60;;;17.00;99.90;;;;;;5067461;28;20231;-75
2023/10/06 07:10:15;;;;;;;9.60;1.85;;;17.00;99.90;;;;;;5072789;28;20644;-74
2023/10/06 07:12:50;;;;;;;8.18;1.90;;;17.00;99.90;;;;;;5072616;28;20234;-74
2023/10/06 07:15:23;;;;;;;13.13;1.60;;;16.90;99.90;;;;;;5067940;28;20196;-74
2023/10/06 07:17:56;;;;;;;10.57;1.67;;;16.80;99.90;;;;;;5069916;28;20562;-75
2023/10/06 07:20:29;;;;;;;9.85;1.65;;;16.80;99.90;;;;;;5066640;28;20201;-73
2023/10/06 07:23:00;;;;;;;7.80;1.77;;;16.80;99.90;;;;;;5063359;28;20660;-75
2023/10/06 07:25:31;;;;;;;10.15;1.98;;;16.80;99.90;;;;;;5065503;28;20265;-74
2023/10/06 07:28:03;;;;;;;8.30;1.90;;;16.90;99.90;;;;;;5065671;28;20213;-74
2023/10/06 07:30:41;;;;;;;8.43;1.75;;;16.90;99.90;;;;;;5070603;28;20598;-72
2023/10/06 07:33:12;;;;;;;13.82;2.28;;;16.80;99.90;;;;;;5064734;28;20259;-72
2023/10/06 07:35:45;;;;;;;10.05;1.80;;;16.90;99.90;;;;;;5059501;28;20205;-73
2023/10/06 07:38:16;;;;;;;9.52;1.75;;;16.80;99.90;;;;;;5060152;28;20194;-75
2023/10/06 07:40:47;;;;;;;11.50;1.90;;;16.80;99.90;;;;;;5063751;28;20196;-75
2023/10/06 07:43:18;;;;;;;10.73;1.83;;;16.70;99.90;;;;;;5064598;28;20200;-74
2023/10/06 07:45:51;;;;;;;11.85;1.95;;;16.70;99.90;;;;;;5064850;28;20193;-72
2023/10/06 07:48:22;;;;;;;9.77;1.73;;;16.60;99.90;;;;;;5067138;28;20220;-76
2023/10/06 07:50:52;;;;;;;13.27;2.00;;;16.60;99.90;;;;;;5070213;28;20201;-73
2023/10/06 07:53:24;;;;;;;9.52;1.92;;;16.60;99.90;;;;;;5067446;28;20727;-74
2023/10/06 07:55:55;;;;;;;9.93;1.80;;;16.60;99.90;;;;;;5073413;28;20199;-72
2023/10/06 07:58:27;;;;;;;8.50;1.80;;;16.60;99.90;;;;;;5072753;28;20208;-74
2023/10/06 08:01:02;;;;;;;6.70;1.58;;;16.60;99.90;;;;;;5057517;28;20579;-77
2023/10/06 08:03:37;;;;;;;11.60;1.35;;;16.70;99.90;;;;;;5067029;28;20224;-76
2023/10/06 08:06:08;;;;;;;11.20;2.10;;;16.70;99.90;;;;;;5065495;28;20198;-76
2023/10/06 08:08:40;;;;;;;11.82;1.60;;;16.70;99.90;;;;;;5061234;28;20217;-74
2023/10/06 08:11:13;;;;;;;8.43;1.45;;;16.60;99.90;;;;;;5072955;28;20204;-80
2023/10/06 08:13:43;;;;;;;9.85;1.75;;;16.60;99.90;;;;;;5074849;28;20692;-76
2023/10/06 08:16:16;;;;;;;8.38;1.70;;;16.60;99.90;;;;;;5069696;28;20197;-76
2023/10/06 08:18:48;;;;;;;9.15;1.40;;;16.60;99.90;;;;;;5064672;28;20193;-77
2023/10/06 08:21:20;;;;;;;10.27;1.60;;;16.50;99.90;;;;;;5070229;28;20653;-73
2023/10/06 08:23:51;;;;;;;9.88;1.63;;;16.50;99.90;;;;;;5072677;28;20188;-75
2023/10/06 08:26:21;;;;;;;9.80;1.30;;;16.40;99.90;;;;;;5068608;28;20207;-75
2023/10/06 08:28:54;;;;;;;11.00;1.65;;;16.40;99.90;;;;;;5062243;28;20217;-75
2023/10/06 08:31:28;;;;;;;6.72;1.67;;;16.30;99.90;;;;;;5075236;28;20200;-75
2023/10/06 08:34:01;;;;;;;9.45;1.80;;;16.30;99.90;;;;;;5070250;28;20235;-74
2023/10/06 08:36:32;;;;;;;10.60;2.13;;;16.40;99.90;;;;;;5070877;28;20262;-74
2023/10/06 08:39:02;;;;;;;11.65;1.70;;;16.40;99.90;;;;;;5073494;28;20197;-77
2023/10/06 08:41:38;;;;;;;7.50;1.60;;;16.40;99.90;;;;;;5074414;28;20197;-74
2023/10/06 08:44:09;;;;;;;7.68;1.67;;;16.50;99.90;;;;;;5074922;28;20204;-74
2023/10/06 08:46:44;;;;;;;8.27;1.48;;;16.50;99.90;;;;;;5074407;28;20199;-76
2023/10/06 08:49:19;;;;;;;8.23;1.92;;;16.50;99.90;;;;;;5075354;28;20220;-77
2023/10/06 08:51:54;;;;;;;8.10;1.70;;;16.50;99.90;;;;;;5073100;28;20376;-76
2023/10/06 08:54:26;;;;;;;9.70;1.77;;;16.50;99.90;;;;;;5074301;28;20208;-75
2023/10/06 08:56:56;;;;;;;10.68;1.90;;;16.50;99.90;;;;;;5074925;28;20204;-77
2023/10/06 08:59:27;;;;;;;10.05;2.05;;;16.50;99.90;;;;;;5067197;28;20192;-76
2023/10/06 09:02:01;;;;;;;9.85;1.73;;;16.50;99.90;;;;;;5074187;28;20543;-76
2023/10/06 09:04:37;;;;;;;12.10;1.77;;;16.50;99.90;;;;;;5075215;28;20246;-74
2023/10/06 09:07:15;;;;;;;10.45;2.00;;;16.50;99.90;;;;;;5073439;28;20251;-74
2023/10/06 09:09:47;;;;;;;6.07;1.30;;;16.50;99.90;;;;;;5072907;28;20209;-76
2023/10/06 09:12:31;;;;;;;11.48;1.83;;;16.50;99.90;;;;;;5074388;28;20561;-74
2023/10/06 09:15:02;;;;;;;5.35;1.42;;;16.50;99.90;;;;;;5071193;28;20248;-77
2023/10/06 09:17:37;;;;;;;8.15;1.60;;;16.50;99.90;;;;;;5074027;28;20197;-78
2023/10/06 09:20:08;;;;;;;8.80;1.83;;;16.60;99.90;;;;;;5073957;28;20211;-79
2023/10/06 09:22:49;;;;;;;12.75;2.03;;;16.60;99.90;;;;;;5073503;28;20220;-78
2023/10/06 09:25:21;;;;;;;7.85;1.60;;;16.60;99.90;;;;;;5070737;28;20280;-77
2023/10/06 09:28:03;;;;;;;6.18;1.40;;;16.60;99.90;;;;;;5074989;28;20657;-77
2023/10/06 09:30:49;;;;;;;6.07;1.30;;;16.60;99.90;;;;;;5075081;28;20271;-76
2023/10/06 09:33:24;;;;;;;4.38;1.30;;;16.60;99.90;;;;;;5072266;28;20279;-77
2023/10/06 09:36:06;;;;;;;7.45;1.23;;;16.60;99.90;;;;;;5072806;28;20195;-77
2023/10/06 09:38:38;;;;;;;9.40;1.50;;;16.70;99.90;;;;;;5067153;28;20200;-75
2023/10/06 09:41:10;;;;;;;10.82;1.70;;;16.70;99.90;;;;;;5072197;28;20282;-74
2023/10/06 09:43:41;;;;;;;6.45;1.30;;;16.70;99.90;;;;;;5073803;28;20623;-76
2023/10/06 09:46:13;;;;;;;14.93;1.70;;;16.70;99.90;;;;;;5070425;28;20193;-77
2023/10/06 09:48:46;;;;;;;10.25;1.40;;;16.70;99.90;;;;;;5071216;28;20208;-77
2023/10/06 09:51:17;;;;;;;6.05;1.50;;;16.70;99.90;;;;;;5071898;28;20201;-78
2023/10/06 09:53:48;;;;;;;7.32;1.45;;;16.70;99.90;;;;;;5066868;28;20201;-75
2023/10/06 09:56:20;;;;;;;5.50;1.30;;;16.60;99.90;;;;;;5072106;28;20252;-75
2023/10/06 09:58:51;;;;;;;9.75;1.40;;;16.60;99.90;;;;;;5067832;28;20216;-77
2023/10/06 10:01:24;;;;;;;6.10;1.40;;;16.60;99.90;;;;;;5068261;28;20193;-74
2023/10/06 10:03:58;;;;;;;9.48;2.15;;;16.50;99.90;;;;;;5070199;28;20200;-73
2023/10/06 10:06:30;;;;;;;6.00;1.35;;;16.60;99.90;;;;;;5068803;28;20199;-74
2023/10/06 10:09:05;;;;;;;8.20;1.38;;;16.60;99.90;;;;;;5067998;28;20221;-75
2023/10/06 10:11:39;;;;;;;7.20;1.40;;;16.50;99.90;;;;;;5068223;28;20196;-74
2023/10/06 10:14:28;;;;;;;6.30;1.40;;;16.60;99.90;;;;;;5068731;28;20236;-76
2023/10/06 10:17:16;;;;;;;9.93;1.60;;;16.60;99.90;;;;;;5062643;28;20213;-74
2023/10/06 10:19:51;;;;;;;10.65;1.55;;;16.60;99.90;;;;;;5067246;28;20204;-74
2023/10/06 10:22:22;;;;;;;5.88;1.20;;;16.50;99.90;;;;;;5071520;28;20196;-75
2023/10/06 10:24:53;;;;;;;9.75;1.48;;;16.60;99.90;;;;;;5072497;28;20181;-73
2023/10/06 10:27:23;;;;;;;6.50;1.20;;;16.60;99.90;;;;;;5070757;28;20201;-77
2023/10/06 10:29:54;;;;;;;6.55;1.17;;;16.50;99.90;;;;;;5069249;28;20236;-75
2023/10/06 10:32:25;;;;;;;6.70;1.20;;;16.50;99.90;;;;;;5067199;28;20196;-76
2023/10/06 10:35:18;;;;;;;10.30;1.30;;;16.50;99.90;;;;;;5069823;28;20262;-75
2023/10/06 10:38:06;;;;;;;7.57;1.13;;;16.50;99.90;;;;;;5072196;28;20181;-73
2023/10/06 10:40:50;;;;;;;5.43;1.20;;;16.50;99.90;;;;;;5071140;28;20637;-73
2023/10/06 10:43:20;;;;;;;8.75;1.40;;;16.50;99.90;;;;;;5072705;28;20645;-73
2023/10/06 10:45:52;;;;;;;7.55;1.38;;;16.50;99.90;;;;;;5070593;28;20239;-75
2023/10/06 10:48:23;;;;;;;9.38;1.80;;;16.50;99.90;;;;;;5069525;28;20217;-76
2023/10/06 10:51:05;;;;;;;9.05;1.50;;;16.50;99.90;;;;;;5070573;28;20204;-74
2023/10/06 10:53:41;;;;;;;8.80;1.60;;;16.50;99.90;;;;;;5071891;28;20199;-75
2023/10/06 10:56:14;;;;;;;5.00;1.30;;;16.60;99.90;;;;;;5070651;28;20192;-72
2023/10/06 10:59:00;;;;;;;5.97;1.63;;;16.60;99.90;;;;;;5071026;28;20276;-72
2023/10/06 11:01:37;;;;;;;6.90;1.05;;;16.60;99.90;;;;;;5071095;28;20246;-72
2023/10/06 11:04:31;;;;;;;7.65;1.30;;;16.60;99.90;;;;;;5070038;28;20636;-74
2023/10/06 11:07:15;;;;;;;5.57;1.20;;;16.50;99.90;;;;;;5072348;28;20588;-72
2023/10/06 11:09:49;;;;;;;7.88;1.88;;;16.50;99.90;;;;;;5070227;28;20223;-72
2023/10/06 11:12:24;;;;;;;7.63;1.58;;;16.40;99.90;;;;;;5072687;28;20667;-73
2023/10/06 11:15:02;;;;;;;10.70;1.67;;;16.40;99.90;;;;;;5072479;28;20197;-73
2023/10/06 11:17:34;;;;;;;6.68;1.40;;;16.30;99.90;;;;;;5071084;28;20187;-73
2023/10/06 11:20:12;;;;;;;6.25;1.52;;;16.30;99.90;;;;;;5069574;28;20594;-74
2023/10/06 11:22:55;;;;;;;9.15;1.48;;;16.20;99.90;;;;;;5072962;28;20199;-74
2023/10/06 11:25:29;;;;;;;8.13;1.20;;;16.00;99.90;;;;;;5071653;28;20251;-74
2023/10/06 11:28:03;;;;;;;7.57;1.42;;;16.00;99.90;;;;;;5069618;28;20296;-77
2023/10/06 11:30:34;;;;;;;9.38;1.38;;;15.90;99.90;;;;;;5075368;28;20208;-73
2023/10/06 11:33:07;;;;;;;8.75;1.70;;;15.80;99.90;;;;;;5076171;28;20315;-71
2023/10/06 11:35:38;;;;;;;7.03;1.50;;;15.70;99.90;;;;;;5075942;28;20189;-72
2023/10/06 11:38:13;;;;;;;9.10;1.40;;;15.70;99.90;;;;;;5076022;28;20200;-72
2023/10/06 11:40:43;;;;;;;9.57;1.50;;;15.60;99.90;;;;;;5075130;28;20196;-75
2023/10/06 11:43:17;;;;;;;6.43;1.30;;;15.50;99.90;;;;;;5075413;28;20277;-72
2023/10/06 11:45:49;;;;;;;7.95;1.70;;;15.50;99.90;;;;;;5076014;28;20271;-74
2023/10/06 11:48:30;;;;;;;7.93;1.50;;;15.50;99.90;;;;;;5073615;28;20250;-72
2023/10/06 11:51:06;;;;;;;6.78;1.25;;;15.40;99.90;;;;;;5074251;28;20232;-73
2023/10/06 11:53:39;;;;;;;6.07;1.48;;;15.30;99.90;;;;;;5075887;28;20238;-73
2023/10/06 11:56:10;;;;;;;7.97;1.42;;;15.40;99.90;;;;;;5073306;28;20821;-72
2023/10/06 11:58:41;;;;;;;7.70;1.30;;;15.40;99.90;;;;;;5072121;28;20196;-73
2023/10/06 12:01:32;;;;;;;7.18;1.40;;;15.40;99.90;;;;;;5072283;28;20220;-73
2023/10/06 12:04:04;;;;;;;7.47;1.67;;;15.40;99.90;;;;;;5074727;28;20275;-72
2023/10/06 12:06:41;;;;;;;12.70;1.80;;;15.40;99.90;;;;;;5067864;28;20275;-72
2023/10/06 12:09:29;;;;;;;8.30;1.40;;;15.40;99.90;;;;;;5073386;28;20556;-73
2023/10/06 12:12:01;;;;;;;8.45;1.55;;;15.40;99.90;;;;;;5072183;28;20270;-73
2023/10/06 12:14:33;;;;;;;10.23;1.52;;;15.40;99.90;;;;;;5074259;28;20197;-72
2023/10/06 12:17:04;;;;;;;8.38;1.65;;;15.40;99.90;;;;;;5073088;28;20204;-76
2023/10/06 12:19:35;;;;;;;8.65;1.50;;;15.40;99.90;;;;;;5075008;28;20543;-73
2023/10/06 12:22:07;;;;;;;5.95;1.33;;;15.40;99.90;;;;;;5071708;28;20204;-73
2023/10/06 12:24:39;;;;;;;11.93;1.65;;;15.40;99.90;;;;;;5064598;28;20652;-75
2023/10/06 12:27:10;;;;;;;5.85;1.23;;;15.40;99.90;;;;;;5074395;28;20258;-73
2023/10/06 12:29:41;;;;;;;6.07;1.55;;;15.40;99.90;;;;;;5074226;28;20272;-73
2023/10/06 12:32:12;;;;;;;7.85;1.50;;;15.40;99.90;;;;;;5071789;28;20207;-73
2023/10/06 12:34:43;;;;;;;7.40;1.30;;;15.40;99.90;;;;;;5074398;28;20211;-73
2023/10/06 12:37:15;;;;;;;8.85;1.30;;;15.40;99.90;;;;;;5075113;28;20199;-73
2023/10/06 12:39:48;;;;;;;6.00;1.33;;;15.30;99.90;;;;;;5065281;28;20284;-74
2023/10/06 12:42:19;;;;;;;7.47;1.35;;;15.30;99.90;;;;;;5072957;28;20235;-75
2023/10/06 12:44:53;;;;;;;6.43;1.33;;;15.20;99.90;;;;;;5074624;28;20588;-73
2023/10/06 12:47:23;;;;;;;8.20;1.73;;;15.30;99.90;;;;;;5072494;28;20205;-73
2023/10/06 12:49:58;;;;;;;6.72;1.60;;;15.40;99.90;;;;;;5073974;28;20673;-73
2023/10/06 12:52:28;;;;;;;6.28;1.38;;;15.40;99.90;;;;;;5075105;28;20196;-72
2023/10/06 12:55:05;;;;;;;7.25;1.40;;;15.40;99.90;;;;;;5074344;28;20702;-72
2023/10/06 12:57:37;;;;;;;7.45;1.40;;;15.40;99.90;;;;;;5075612;28;20264;-73
2023/10/06 13:00:09;;;;;;;7.35;1.33;;;15.40;99.90;;;;;;5075142;28;20204;-72
2023/10/06 13:02:40;;;;;;;8.85;1.55;;;15.40;99.90;;;;;;5069636;28;20206;-72
2023/10/06 13:05:13;;;;;;;6.55;1.40;;;15.40;99.90;;;;;;5063567;28;20250;-73
2023/10/06 13:07:46;;;;;;;7.63;1.38;;;15.40;99.90;;;;;;5055592;28;20281;-75
2023/10/06 13:10:21;;;;;;;6.63;1.30;;;15.40;99.90;;;;;;5065603;28;20629;-75
2023/10/06 13:12:52;;;;;;;7.50;1.27;;;15.40;99.90;;;;;;5075587;28;20224;-73
2023/10/06 13:15:23;;;;;;;9.50;1.15;;;15.40;99.90;;;;;;5074583;28;20208;-75
2023/10/06 13:17:54;;;;;;;9.18;1.40;;;15.40;99.90;;;;;;5075222;28;20680;-73
2023/10/06 13:20:25;;;;;;;7.30;1.35;;;15.40;99.90;;;;;;5075358;28;20193;-74